Time,TemperatureF,DewpointF,PressureIn,WindDirection,WindDirectionDegrees,WindSpeedMPH,WindSpeedGustMPH,Humidity,HourlyPrecipIn,Conditions,Clouds,dailyrainin,SoftwareType,DateUTC
2013-03-20 00:02:00,24.3,17.0,29.91,WSW,256,3.0,11.0,74,0.00,,,0.00,weatherlink.com 1.10,2013-03-20 04:02:00,
2013-03-20 00:17:00,24.4,17.0,29.91,West,276,4.0,13.0,73,0.00,,,0.00,weatherlink.com 1.10,2013-03-20 04:17:00,
2013-03-20 00:32:00,24.3,17.0,29.91,West,274,3.0,11.0,73,0.00,,,0.00,weatherlink.com 1.10,2013-03-20 04:32:00,
2013-03-20 00:47:00,24.4,17.0,29.91,West,281,6.0,12.0,72,0.00,,,0.00,weatherlink.com 1.10,2013-03-20 04:47:00,
2013-03-20 01:02:00,24.3,16.0,29.91,NNW,328,4.0,15.0,71,0.00,,,0.00,weatherlink.com 1.10,2013-03-20 05:02:00,
2013-03-20 01:17:00,24.0,16.0,29.91,WSW,257,11.0,12.0,71,0.00,,,0.00,weatherlink.com 1.10,2013-03-20 05:17:00,
2013-03-20 01:32:00,23.9,16.0,29.91,WNW,285,5.0,11.0,71,0.00,,,0.00,weatherlink.com 1.10,2013-03-20 05:32:00,
2013-03-20 01:48:00,23.6,15.0,29.91,West,277,9.0,11.0,71,0.00,,,0.00,weatherlink.com 1.10,2013-03-20 05:48:00,
2013-03-20 02:02:00,23.6,15.0,29.91,West,280,3.0,10.0,71,0.00,,,0.00,weatherlink.com 1.10,2013-03-20 06:02:00,
2013-03-20 02:18:00,23.6,15.0,29.91,WSW,238,4.0,12.0,70,0.00,,,0.00,weatherlink.com 1.10,2013-03-20 06:18:00,
2013-03-20 02:33:00,23.2,15.0,29.91,West,269,7.0,12.0,70,0.00,,,0.00,weatherlink.com 1.10,2013-03-20 06:33:00,
2013-03-20 02:48:00,23.2,15.0,29.91,West,271,4.0,13.0,71,0.00,,,0.00,weatherlink.com 1.10,2013-03-20 06:48:00,
2013-03-20 03:03:00,23.0,15.0,29.91,West,264,5.0,11.0,71,0.00,,,0.00,weatherlink.com 1.10,2013-03-20 07:03:00,
2013-03-20 03:18:00,23.0,15.0,29.91,SW,226,2.0,13.0,71,0.00,,,0.00,weatherlink.com 1.10,2013-03-20 07:18:00,
2013-03-20 03:33:00,22.9,14.0,29.91,SW,235,3.0,12.0,70,0.00,,,0.00,weatherlink.com 1.10,2013-03-20 07:33:00,
2013-03-20 03:48:00,22.9,14.0,29.91,WNW,292,5.0,15.0,70,0.00,,,0.00,weatherlink.com 1.10,2013-03-20 07:48:00,
2013-03-20 04:03:00,22.6,15.0,29.91,West,281,5.0,11.0,71,0.00,,,0.00,weatherlink.com 1.10,2013-03-20 08:03:00,
2013-03-20 04:18:00,22.5,14.0,29.90,WSW,247,6.0,13.0,71,0.00,,,0.00,weatherlink.com 1.10,2013-03-20 08:18:00,
2013-03-20 04:33:00,22.6,14.0,29.90,WNW,296,9.0,13.0,70,0.00,,,0.00,weatherlink.com 1.10,2013-03-20 08:33:00,
2013-03-20 04:48:00,22.3,14.0,29.90,WNW,295,7.0,15.0,71,0.00,,,0.00,weatherlink.com 1.10,2013-03-20 08:48:00,
2013-03-20 05:03:00,22.0,14.0,29.90,WNW,292,6.0,12.0,71,0.00,,,0.00,weatherlink.com 1.10,2013-03-20 09:03:00,
2013-03-20 05:18:00,21.9,14.0,29.90,WSW,240,14.0,15.0,72,0.00,,,0.00,weatherlink.com 1.10,2013-03-20 09:18:00,
2013-03-20 05:33:00,21.6,14.0,29.90,WNW,287,3.0,11.0,73,0.00,,,0.00,weatherlink.com 1.10,2013-03-20 09:33:00,
2013-03-20 05:48:00,21.6,14.0,29.90,West,270,4.0,12.0,73,0.00,,,0.00,weatherlink.com 1.10,2013-03-20 09:48:00,
2013-03-20 06:03:00,21.4,14.0,29.90,WNW,300,8.0,11.0,73,0.00,,,0.00,weatherlink.com 1.10,2013-03-20 10:03:00,
2013-03-20 06:18:00,21.2,14.0,29.90,WNW,283,7.0,11.0,73,0.00,,,0.00,weatherlink.com 1.10,2013-03-20 10:18:00,
2013-03-20 06:33:00,21.1,14.0,29.90,West,276,4.0,9.0,74,0.00,,,0.00,weatherlink.com 1.10,2013-03-20 10:33:00,
2013-03-20 06:48:00,21.1,14.0,29.90,WSW,247,5.0,10.0,74,0.00,,,0.00,weatherlink.com 1.10,2013-03-20 10:48:00,
2013-03-20 07:03:00,20.9,14.0,29.90,West,264,2.0,12.0,74,0.00,,,0.00,weatherlink.com 1.10,2013-03-20 11:03:00,
2013-03-20 07:18:00,20.7,14.0,29.90,WNW,302,6.0,11.0,75,0.00,,,0.00,weatherlink.com 1.10,2013-03-20 11:18:00,
2013-03-20 07:33:00,20.5,14.0,29.91,West,274,9.0,11.0,75,0.00,,,0.00,weatherlink.com 1.10,2013-03-20 11:33:00,
2013-03-20 07:48:00,20.4,14.0,29.91,WNW,285,1.0,11.0,75,0.00,,,0.00,weatherlink.com 1.10,2013-03-20 11:48:00,
2013-03-20 08:03:00,20.4,14.0,29.91,WNW,283,5.0,8.0,76,0.00,,,0.00,weatherlink.com 1.10,2013-03-20 12:03:00,
2013-03-20 08:18:00,21.0,14.0,29.91,West,277,5.0,11.0,75,0.00,,,0.00,weatherlink.com 1.10,2013-03-20 12:18:00,
2013-03-20 08:33:00,22.1,15.0,29.92,West,269,9.0,14.0,74,0.00,,,0.00,weatherlink.com 1.10,2013-03-20 12:33:00,
2013-03-20 08:48:00,22.6,15.0,29.92,West,277,4.0,13.0,73,0.00,,,0.00,weatherlink.com 1.10,2013-03-20 12:48:00,
2013-03-20 09:04:00,22.8,15.0,29.92,NW,323,6.0,14.0,73,0.00,,,0.00,weatherlink.com 1.10,2013-03-20 13:04:00,
2013-03-20 09:18:00,22.9,15.0,29.92,West,270,3.0,17.0,73,0.00,,,0.00,weatherlink.com 1.10,2013-03-20 13:18:00,
2013-03-20 09:33:00,22.9,15.0,29.92,West,278,8.0,17.0,72,0.00,,,0.00,weatherlink.com 1.10,2013-03-20 13:33:00,
2013-03-20 09:48:00,23.2,15.0,29.92,West,260,9.0,15.0,72,0.00,,,0.00,weatherlink.com 1.10,2013-03-20 13:48:00,
2013-03-20 10:04:00,23.6,16.0,29.92,NW,314,12.0,19.0,72,0.00,,,0.00,weatherlink.com 1.10,2013-03-20 14:04:00,
2013-03-20 10:19:00,23.8,16.0,29.92,WNW,290,8.0,17.0,72,0.00,,,0.00,weatherlink.com 1.10,2013-03-20 14:19:00,
2013-03-20 10:34:00,23.9,16.0,29.92,NW,316,11.0,20.0,71,0.00,,,0.00,weatherlink.com 1.10,2013-03-20 14:34:00,
2013-03-20 10:49:00,23.8,15.0,29.92,West,281,10.0,19.0,70,0.00,,,0.00,weatherlink.com 1.10,2013-03-20 14:49:00,
2013-03-20 11:04:00,23.9,16.0,29.91,NW,310,6.0,17.0,71,0.00,,,0.00,weatherlink.com 1.10,2013-03-20 15:04:00,
2013-03-20 11:19:00,23.6,16.0,29.92,NW,307,7.0,11.0,72,0.00,,,0.00,weatherlink.com 1.10,2013-03-20 15:19:00,
2013-03-20 11:34:00,24.0,16.0,29.92,WNW,300,3.0,19.0,70,0.00,,,0.00,weatherlink.com 1.10,2013-03-20 15:34:00,
2013-03-20 11:49:00,23.6,14.0,29.92,West,267,7.0,19.0,68,0.00,,,0.00,weatherlink.com 1.10,2013-03-20 15:49:00,
2013-03-20 12:04:00,23.9,15.0,29.92,WNW,303,10.0,15.0,68,0.00,,,0.00,weatherlink.com 1.10,2013-03-20 16:04:00,
2013-03-20 12:19:00,24.1,15.0,29.92,NW,307,10.0,20.0,69,0.00,,,0.00,weatherlink.com 1.10,2013-03-20 16:19:00,
2013-03-20 12:34:00,24.6,15.0,29.92,West,280,6.0,14.0,68,0.00,,,0.00,weatherlink.com 1.10,2013-03-20 16:34:00,
2013-03-20 12:49:00,25.4,14.0,29.92,West,276,5.0,20.0,61,0.00,,,0.00,weatherlink.com 1.10,2013-03-20 16:49:00,
2013-03-20 13:04:00,25.6,14.0,29.91,WNW,290,7.0,18.0,61,0.00,,,0.00,weatherlink.com 1.10,2013-03-20 17:04:00,
2013-03-20 13:19:00,25.5,14.0,29.91,NW,315,16.0,18.0,63,0.00,,,0.00,weatherlink.com 1.10,2013-03-20 17:19:00,
2013-03-20 13:34:00,26.1,16.0,29.91,WSW,250,3.0,16.0,65,0.00,,,0.00,weatherlink.com 1.10,2013-03-20 17:34:00,
2013-03-20 13:49:00,26.1,14.0,29.91,West,281,6.0,14.0,61,0.00,,,0.00,weatherlink.com 1.10,2013-03-20 17:49:00,
2013-03-20 14:04:00,25.3,16.0,29.91,NW,307,7.0,19.0,68,0.00,,,0.00,weatherlink.com 1.10,2013-03-20 18:04:00,
2013-03-20 14:19:00,25.4,16.0,29.90,NNW,328,12.0,16.0,67,0.00,,,0.00,weatherlink.com 1.10,2013-03-20 18:19:00,
2013-03-20 14:34:00,25.4,17.0,29.90,WSW,250,7.0,19.0,71,0.00,,,0.00,weatherlink.com 1.10,2013-03-20 18:34:00,
2013-03-20 14:49:00,25.0,17.0,29.90,WNW,297,9.0,14.0,70,0.00,,,0.00,weatherlink.com 1.10,2013-03-20 18:49:00,
2013-03-20 15:04:00,24.4,17.0,29.90,West,270,11.0,21.0,73,0.00,,,0.00,weatherlink.com 1.10,2013-03-20 19:04:00,
2013-03-20 15:19:00,26.3,17.0,29.89,WNW,286,7.0,19.0,69,0.00,,,0.00,weatherlink.com 1.10,2013-03-20 19:19:00,
2013-03-20 15:34:00,24.0,18.0,29.90,WNW,298,12.0,18.0,77,0.00,,,0.00,weatherlink.com 1.10,2013-03-20 19:34:00,
2013-03-20 15:49:00,25.5,17.0,29.89,NW,316,11.0,19.0,70,0.00,,,0.00,weatherlink.com 1.10,2013-03-20 19:49:00,
2013-03-20 16:04:00,25.1,16.0,29.90,WSW,254,8.0,20.0,69,0.00,,,0.00,weatherlink.com 1.10,2013-03-20 20:04:00,
2013-03-20 16:19:00,26.4,16.0,29.90,NW,308,8.0,18.0,66,0.00,,,0.00,weatherlink.com 1.10,2013-03-20 20:19:00,
2013-03-20 16:34:00,25.4,16.0,29.90,NW,310,11.0,22.0,67,0.00,,,0.00,weatherlink.com 1.10,2013-03-20 20:34:00,
2013-03-20 16:49:00,23.6,18.0,29.91,NNW,330,16.0,19.0,80,0.00,,,0.00,weatherlink.com 1.10,2013-03-20 20:49:00,
2013-03-20 17:19:00,24.1,18.0,29.91,WNW,298,10.0,15.0,77,0.00,,,0.00,weatherlink.com 1.10,2013-03-20 21:19:00,
2013-03-20 17:35:00,23.7,17.0,29.91,West,263,5.0,16.0,76,0.00,,,0.00,weatherlink.com 1.10,2013-03-20 21:35:00,
2013-03-20 17:49:00,23.6,16.0,29.92,WNW,300,9.0,22.0,74,0.00,,,0.00,weatherlink.com 1.10,2013-03-20 21:49:00,
2013-03-20 18:04:00,22.8,19.0,29.92,WSW,245,9.0,13.0,85,0.00,,,0.00,weatherlink.com 1.10,2013-03-20 22:04:00,
2013-03-20 18:19:00,22.5,16.0,29.92,WNW,293,11.0,16.0,77,0.00,,,0.00,weatherlink.com 1.10,2013-03-20 22:19:00,
2013-03-20 18:34:00,22.8,15.0,29.93,WNW,297,11.0,19.0,73,0.00,,,0.00,weatherlink.com 1.10,2013-03-20 22:34:00,
2013-03-20 18:49:00,22.8,15.0,29.93,WNW,293,5.0,17.0,73,0.00,,,0.00,weatherlink.com 1.10,2013-03-20 22:49:00,
2013-03-20 19:04:00,22.0,15.0,29.93,West,271,6.0,15.0,73,0.00,,,0.00,weatherlink.com 1.10,2013-03-20 23:04:00,
2013-03-20 19:19:00,21.0,14.0,29.93,WNW,292,6.0,13.0,75,0.00,,,0.00,weatherlink.com 1.10,2013-03-20 23:19:00,
2013-03-20 19:34:00,20.4,15.0,29.93,West,280,7.0,14.0,78,0.00,,,0.00,weatherlink.com 1.10,2013-03-20 23:34:00,
2013-03-20 19:49:00,20.0,14.0,29.94,NW,311,10.0,13.0,77,0.00,,,0.00,weatherlink.com 1.10,2013-03-20 23:49:00,
2013-03-20 20:04:00,19.8,13.0,29.94,West,278,1.0,13.0,76,0.00,,,0.00,weatherlink.com 1.10,2013-03-21 00:04:00,
2013-03-20 20:19:00,19.4,13.0,29.94,West,270,5.0,13.0,75,0.00,,,0.00,weatherlink.com 1.10,2013-03-21 00:19:00,
2013-03-20 20:34:00,19.0,13.0,29.94,WSW,238,4.0,11.0,76,0.00,,,0.00,weatherlink.com 1.10,2013-03-21 00:34:00,
2013-03-20 20:49:00,18.9,13.0,29.94,WSW,249,3.0,12.0,78,0.00,,,0.00,weatherlink.com 1.10,2013-03-21 00:49:00,
2013-03-20 21:04:00,18.5,13.0,29.94,West,273,5.0,13.0,79,0.00,,,0.00,weatherlink.com 1.10,2013-03-21 01:04:00,
2013-03-20 21:20:00,18.3,13.0,29.95,NW,304,3.0,15.0,78,0.00,,,0.00,weatherlink.com 1.10,2013-03-21 01:20:00,
2013-03-20 21:35:00,18.1,12.0,29.94,WSW,249,3.0,14.0,78,0.00,,,0.00,weatherlink.com 1.10,2013-03-21 01:35:00,
2013-03-20 21:50:00,17.8,12.0,29.95,West,277,5.0,11.0,78,0.00,,,0.00,weatherlink.com 1.10,2013-03-21 01:50:00,
2013-03-20 22:05:00,17.4,12.0,29.94,West,280,6.0,8.0,79,0.00,,,0.00,weatherlink.com 1.10,2013-03-21 02:05:00,
2013-03-20 22:20:00,17.2,12.0,29.94,NW,310,6.0,10.0,79,0.00,,,0.00,weatherlink.com 1.10,2013-03-21 02:20:00,
2013-03-20 22:35:00,16.9,11.0,29.95,WNW,298,6.0,8.0,79,0.00,,,0.00,weatherlink.com 1.10,2013-03-21 02:35:00,
2013-03-20 22:50:00,16.6,11.0,29.94,WSW,245,5.0,8.0,79,0.00,,,0.00,weatherlink.com 1.10,2013-03-21 02:50:00,
2013-03-20 23:05:00,16.3,11.0,29.94,WNW,291,3.0,6.0,79,0.00,,,0.00,weatherlink.com 1.10,2013-03-21 03:05:00,
2013-03-20 23:20:00,16.1,11.0,29.94,West,266,3.0,9.0,80,0.00,,,0.00,weatherlink.com 1.10,2013-03-21 03:20:00,
2013-03-20 23:35:00,15.7,11.0,29.93,WNW,283,8.0,8.0,80,0.00,,,0.00,weatherlink.com 1.10,2013-03-21 03:35:00,
2013-03-20 23:50:00,15.7,11.0,29.93,WSW,255,7.0,9.0,80,0.00,,,0.00,weatherlink.com 1.10,2013-03-21 03:50:00,